sensor_id;sensor_type;location;lat;lon;timestamp;temperature;humidity
33699;DHT22;20032;52.436;13.312;2023-05-07T00:00:29;9.70;99.90
33699;DHT22;20032;52.436;13.312;2023-05-07T00:02:55;9.70;99.90
33699;DHT22;20032;52.436;13.312;2023-05-07T00:05:20;9.60;99.90
33699;DHT22;20032;52.436;13.312;2023-05-07T00:07:46;9.60;99.90
33699;DHT22;20032;52.436;13.312;2023-05-07T00:10:12;9.70;99.90
33699;DHT22;20032;52.436;13.312;2023-05-07T00:12:38;9.60;99.90
33699;DHT22;20032;52.436;13.312;2023-05-07T00:15:04;9.60;99.90
33699;DHT22;20032;52.436;13.312;2023-05-07T00:17:30;9.60;99.90
33699;DHT22;20032;52.436;13.312;2023-05-07T00:19:55;9.60;99.90
33699;DHT22;20032;52.436;13.312;2023-05-07T00:22:21;9.60;99.90
33699;DHT22;20032;52.436;13.312;2023-05-07T00:24:47;9.60;99.90
33699;DHT22;20032;52.436;13.312;2023-05-07T00:27:12;9.60;99.90
33699;DHT22;20032;52.436;13.312;2023-05-07T00:29:38;9.70;99.90
33699;DHT22;20032;52.436;13.312;2023-05-07T00:32:04;9.70;99.90
33699;DHT22;20032;52.436;13.312;2023-05-07T00:34:29;9.70;99.90
33699;DHT22;20032;52.436;13.312;2023-05-07T00:36:55;9.70;99.90
33699;DHT22;20032;52.436;13.312;2023-05-07T00:39:20;9.70;99.90
33699;DHT22;20032;52.436;13.312;2023-05-07T00:41:46;9.70;99.90
33699;DHT22;20032;52.436;13.312;2023-05-07T00:44:12;9.60;99.90
33699;DHT22;20032;52.436;13.312;2023-05-07T00:46:38;9.60;99.90
33699;DHT22;20032;52.436;13.312;2023-05-07T00:49:03;9.60;99.90
33699;DHT22;20032;52.436;13.312;2023-05-07T00:51:30;9.60;99.90
33699;DHT22;20032;52.436;13.312;2023-05-07T00:53:56;9.60;99.90
33699;DHT22;20032;52.436;13.312;2023-05-07T00:56:22;9.70;99.90
33699;DHT22;20032;52.436;13.312;2023-05-07T00:58:49;9.60;99.90
33699;DHT22;20032;52.436;13.312;2023-05-07T01:01:14;9.70;99.90
33699;DHT22;20032;52.436;13.312;2023-05-07T01:03:42;9.80;99.90
33699;DHT22;20032;52.436;13.312;2023-05-07T01:06:09;9.70;99.90
33699;DHT22;20032;52.436;13.312;2023-05-07T01:08:35;9.80;99.90
33699;DHT22;20032;52.436;13.312;2023-05-07T01:11:01;9.80;99.90
33699;DHT22;20032;52.436;13.312;2023-05-07T01:13:27;9.80;99.90
33699;DHT22;20032;52.436;13.312;2023-05-07T01:15:53;9.80;99.90
33699;DHT22;20032;52.436;13.312;2023-05-07T01:18:19;9.80;99.90
33699;DHT22;20032;52.436;13.312;2023-05-07T01:20:45;9.70;99.90
33699;DHT22;20032;52.436;13.312;2023-05-07T01:23:11;9.70;99.90
33699;DHT22;20032;52.436;13.312;2023-05-07T01:25:36;9.70;99.90
33699;DHT22;20032;52.436;13.312;2023-05-07T01:28:02;9.70;99.90
33699;DHT22;20032;52.436;13.312;2023-05-07T01:30:28;9.80;99.90
33699;DHT22;20032;52.436;13.312;2023-05-07T01:33:01;9.80;99.90
33699;DHT22;20032;52.436;13.312;2023-05-07T01:35:34;9.80;99.90
33699;DHT22;20032;52.436;13.312;2023-05-07T01:38:01;9.80;99.90
33699;DHT22;20032;52.436;13.312;2023-05-07T01:40:29;9.70;99.90
33699;DHT22;20032;52.436;13.312;2023-05-07T01:42:55;9.70;99.90
33699;DHT22;20032;52.436;13.312;2023-05-07T01:45:21;9.80;99.90
33699;DHT22;20032;52.436;13.312;2023-05-07T01:47:47;9.80;99.90
33699;DHT22;20032;52.436;13.312;2023-05-07T01:50:13;9.70;99.90
33699;DHT22;20032;52.436;13.312;2023-05-07T01:52:42;9.70;99.90
33699;DHT22;20032;52.436;13.312;2023-05-07T01:55:07;9.70;99.90
33699;DHT22;20032;52.436;13.312;2023-05-07T01:57:33;9.70;99.90
33699;DHT22;20032;52.436;13.312;2023-05-07T01:59:58;9.70;99.90
33699;DHT22;20032;52.436;13.312;2023-05-07T02:02:24;9.70;99.90
33699;DHT22;20032;52.436;13.312;2023-05-07T02:04:49;9.60;99.90
33699;DHT22;20032;52.436;13.312;2023-05-07T02:07:15;9.70;99.90
33699;DHT22;20032;52.436;13.312;2023-05-07T02:09:40;9.60;99.90
33699;DHT22;20032;52.436;13.312;2023-05-07T02:12:06;9.70;99.90
33699;DHT22;20032;52.436;13.312;2023-05-07T02:14:31;9.60;99.90
33699;DHT22;20032;52.436;13.312;2023-05-07T02:16:56;9.60;99.90
33699;DHT22;20032;52.436;13.312;2023-05-07T02:19:22;9.60;99.90
33699;DHT22;20032;52.436;13.312;2023-05-07T02:21:47;9.60;99.90
33699;DHT22;20032;52.436;13.312;2023-05-07T02:24:13;9.60;99.90
33699;DHT22;20032;52.436;13.312;2023-05-07T02:26:40;9.60;99.90
33699;DHT22;20032;52.436;13.312;2023-05-07T02:29:06;9.60;99.90
33699;DHT22;20032;52.436;13.312;2023-05-07T02:31:32;9.60;99.90
33699;DHT22;20032;52.436;13.312;2023-05-07T02:33:59;9.60;99.90
33699;DHT22;20032;52.436;13.312;2023-05-07T02:36:24;9.60;99.90
33699;DHT22;20032;52.436;13.312;2023-05-07T02:38:50;9.60;99.90
33699;DHT22;20032;52.436;13.312;2023-05-07T02:41:15;9.60;99.90
33699;DHT22;20032;52.436;13.312;2023-05-07T02:43:41;9.60;99.90
33699;DHT22;20032;52.436;13.312;2023-05-07T02:46:08;9.60;99.90
33699;DHT22;20032;52.436;13.312;2023-05-07T02:48:34;9.60;99.90
33699;DHT22;20032;52.436;13.312;2023-05-07T02:51:00;9.60;99.90
33699;DHT22;20032;52.436;13.312;2023-05-07T02:53:26;9.60;99.90
33699;DHT22;20032;52.436;13.312;2023-05-07T02:55:53;9.60;99.90
33699;DHT22;20032;52.436;13.312;2023-05-07T02:58:18;9.60;99.90
33699;DHT22;20032;52.436;13.312;2023-05-07T03:00:44;9.60;99.90
33699;DHT22;20032;52.436;13.312;2023-05-07T03:03:10;9.60;99.90
33699;DHT22;20032;52.436;13.312;2023-05-07T03:05:36;9.60;99.90
33699;DHT22;20032;52.436;13.312;2023-05-07T03:08:01;9.50;99.90
33699;DHT22;20032;52.436;13.312;2023-05-07T03:10:28;9.60;99.90
33699;DHT22;20032;52.436;13.312;2023-05-07T03:12:53;9.60;99.90
33699;DHT22;20032;52.436;13.312;2023-05-07T03:15:19;9.70;99.90
33699;DHT22;20032;52.436;13.312;2023-05-07T03:17:45;9.70;99.90
33699;DHT22;20032;52.436;13.312;2023-05-07T03:20:10;9.70;99.90
33699;DHT22;20032;52.436;13.312;2023-05-07T03:22:36;9.60;99.90
33699;DHT22;20032;52.436;13.312;2023-05-07T03:25:02;9.60;99.90
33699;DHT22;20032;52.436;13.312;2023-05-07T03:27:27;9.60;99.90
33699;DHT22;20032;52.436;13.312;2023-05-07T03:29:53;9.60;99.90
33699;DHT22;20032;52.436;13.312;2023-05-07T03:32:18;9.60;99.90
33699;DHT22;20032;52.436;13.312;2023-05-07T03:34:44;9.60;99.90
33699;DHT22;20032;52.436;13.312;2023-05-07T03:37:09;9.60;99.90
33699;DHT22;20032;52.436;13.312;2023-05-07T03:39:35;9.60;99.90
33699;DHT22;20032;52.436;13.312;2023-05-07T03:42:00;9.60;99.90
33699;DHT22;20032;52.436;13.312;2023-05-07T03:44:26;9.60;99.90
33699;DHT22;20032;52.436;13.312;2023-05-07T03:46:51;9.60;99.90
33699;DHT22;20032;52.436;13.312;2023-05-07T03:49:17;9.50;99.90
33699;DHT22;20032;52.436;13.312;2023-05-07T03:51:42;9.50;99.90
33699;DHT22;20032;52.436;13.312;2023-05-07T03:54:08;9.50;99.90
33699;DHT22;20032;52.436;13.312;2023-05-07T03:56:34;9.60;99.90
33699;DHT22;20032;52.436;13.312;2023-05-07T03:59:00;9.60;99.90
33699;DHT22;20032;52.436;13.312;2023-05-07T04:01:25;9.60;99.90
33699;DHT22;20032;52.436;13.312;2023-05-07T04:03:51;9.60;99.90
33699;DHT22;20032;52.436;13.312;2023-05-07T04:06:17;9.60;99.90
33699;DHT22;20032;52.436;13.312;2023-05-07T04:08:43;9.60;99.90
33699;DHT22;20032;52.436;13.312;2023-05-07T04:11:08;9.50;99.90
33699;DHT22;20032;52.436;13.312;2023-05-07T04:13:34;9.50;99.90
33699;DHT22;20032;52.436;13.312;2023-05-07T04:16:02;9.50;99.90
33699;DHT22;20032;52.436;13.312;2023-05-07T04:18:27;9.50;99.90
33699;DHT22;20032;52.436;13.312;2023-05-07T04:20:53;9.40;99.90
33699;DHT22;20032;52.436;13.312;2023-05-07T04:23:19;9.50;99.90
33699;DHT22;20032;52.436;13.312;2023-05-07T04:25:44;9.50;99.90
33699;DHT22;20032;52.436;13.312;2023-05-07T04:28:10;9.50;99.90
33699;DHT22;20032;52.436;13.312;2023-05-07T04:30:36;9.40;99.90
33699;DHT22;20032;52.436;13.312;2023-05-07T04:33:02;9.40;99.90
33699;DHT22;20032;52.436;13.312;2023-05-07T04:35:28;9.40;99.90
33699;DHT22;20032;52.436;13.312;2023-05-07T04:37:53;9.40;99.90
33699;DHT22;20032;52.436;13.312;2023-05-07T04:40:19;9.50;99.90
33699;DHT22;20032;52.436;13.312;2023-05-07T04:42:45;9.40;99.90
33699;DHT22;20032;52.436;13.312;2023-05-07T04:45:10;9.50;99.90
33699;DHT22;20032;52.436;13.312;2023-05-07T04:47:37;9.40;99.90
33699;DHT22;20032;52.436;13.312;2023-05-07T04:50:03;9.40;99.90
33699;DHT22;20032;52.436;13.312;2023-05-07T04:52:28;9.40;99.90
33699;DHT22;20032;52.436;13.312;2023-05-07T04:57:22;9.40;99.90
33699;DHT22;20032;52.436;13.312;2023-05-07T04:59:48;9.50;99.90
33699;DHT22;20032;52.436;13.312;2023-05-07T05:02:14;9.60;99.90
33699;DHT22;20032;52.436;13.312;2023-05-07T05:04:39;9.60;99.90
33699;DHT22;20032;52.436;13.312;2023-05-07T05:07:05;9.70;99.90
33699;DHT22;20032;52.436;13.312;2023-05-07T05:09:32;9.60;99.90
33699;DHT22;20032;52.436;13.312;2023-05-07T05:11:57;9.70;99.90
33699;DHT22;20032;52.436;13.312;2023-05-07T05:14:23;9.70;99.90
33699;DHT22;20032;52.436;13.312;2023-05-07T05:16:48;9.70;99.90
33699;DHT22;20032;52.436;13.312;2023-05-07T05:19:13;9.60;99.90
33699;DHT22;20032;52.436;13.312;2023-05-07T05:21:39;9.60;99.90
33699;DHT22;20032;52.436;13.312;2023-05-07T05:24:05;9.60;99.90
33699;DHT22;20032;52.436;13.312;2023-05-07T05:26:30;9.60;99.90
33699;DHT22;20032;52.436;13.312;2023-05-07T05:28:56;9.60;99.90
33699;DHT22;20032;52.436;13.312;2023-05-07T05:31:21;9.60;99.90
33699;DHT22;20032;52.436;13.312;2023-05-07T05:33:47;9.60;99.90
33699;DHT22;20032;52.436;13.312;2023-05-07T05:36:12;9.60;99.90
33699;DHT22;20032;52.436;13.312;2023-05-07T05:38:39;9.60;99.90
33699;DHT22;20032;52.436;13.312;2023-05-07T05:41:04;9.70;99.90
33699;DHT22;20032;52.436;13.312;2023-05-07T05:43:30;9.70;99.90
33699;DHT22;20032;52.436;13.312;2023-05-07T05:45:56;9.80;99.90
33699;DHT22;20032;52.436;13.312;2023-05-07T05:48:22;9.90;99.90
33699;DHT22;20032;52.436;13.312;2023-05-07T05:50:48;9.90;99.90
33699;DHT22;20032;52.436;13.312;2023-05-07T05:53:13;9.80;99.90
33699;DHT22;20032;52.436;13.312;2023-05-07T05:55:39;9.90;99.90
33699;DHT22;20032;52.436;13.312;2023-05-07T05:58:04;10.00;99.90
33699;DHT22;20032;52.436;13.312;2023-05-07T06:00:30;10.00;99.90
33699;DHT22;20032;52.436;13.312;2023-05-07T06:02:56;10.10;99.90
33699;DHT22;20032;52.436;13.312;2023-05-07T06:05:22;10.10;99.90
33699;DHT22;20032;52.436;13.312;2023-05-07T06:07:47;10.10;99.90
33699;DHT22;20032;52.436;13.312;2023-05-07T06:10:13;10.10;99.90
33699;DHT22;20032;52.436;13.312;2023-05-07T06:12:39;10.20;99.90
33699;DHT22;20032;52.436;13.312;2023-05-07T06:15:05;10.20;99.90
33699;DHT22;20032;52.436;13.312;2023-05-07T06:17:31;10.40;99.90
33699;DHT22;20032;52.436;13.312;2023-05-07T06:19:56;10.50;99.90
33699;DHT22;20032;52.436;13.312;2023-05-07T06:22:22;10.60;99.90
33699;DHT22;20032;52.436;13.312;2023-05-07T06:24:47;10.60;99.90
33699;DHT22;20032;52.436;13.312;2023-05-07T06:27:12;10.40;99.90
33699;DHT22;20032;52.436;13.312;2023-05-07T06:29:38;10.40;99.90
33699;DHT22;20032;52.436;13.312;2023-05-07T06:32:08;10.50;99.90
33699;DHT22;20032;52.436;13.312;2023-05-07T06:34:33;10.50;99.90
33699;DHT22;20032;52.436;13.312;2023-05-07T06:36:59;10.40;99.90
33699;DHT22;20032;52.436;13.312;2023-05-07T06:39:24;10.30;99.90
33699;DHT22;20032;52.436;13.312;2023-05-07T06:41:50;10.30;99.90
33699;DHT22;20032;52.436;13.312;2023-05-07T06:44:15;10.30;99.90
33699;DHT22;20032;52.436;13.312;2023-05-07T06:46:41;10.30;99.90
33699;DHT22;20032;52.436;13.312;2023-05-07T06:49:06;10.40;99.90
33699;DHT22;20032;52.436;13.312;2023-05-07T06:51:32;10.40;99.90
33699;DHT22;20032;52.436;13.312;2023-05-07T06:53:57;10.50;99.90
33699;DHT22;20032;52.436;13.312;2023-05-07T06:56:23;10.60;99.90
33699;DHT22;20032;52.436;13.312;2023-05-07T06:58:49;10.60;99.90
33699;DHT22;20032;52.436;13.312;2023-05-07T07:01:14;10.60;99.90
33699;DHT22;20032;52.436;13.312;2023-05-07T07:03:40;10.70;99.90
33699;DHT22;20032;52.436;13.312;2023-05-07T07:06:06;10.80;99.90
33699;DHT22;20032;52.436;13.312;2023-05-07T07:08:31;10.80;99.90
33699;DHT22;20032;52.436;13.312;2023-05-07T07:10:57;10.70;99.90
33699;DHT22;20032;52.436;13.312;2023-05-07T07:13:24;10.70;99.90
33699;DHT22;20032;52.436;13.312;2023-05-07T07:15:49;10.70;99.90
33699;DHT22;20032;52.436;13.312;2023-05-07T07:18:15;10.70;99.90
33699;DHT22;20032;52.436;13.312;2023-05-07T07:20:40;10.70;99.90
33699;DHT22;20032;52.436;13.312;2023-05-07T07:23:06;10.70;99.90
33699;DHT22;20032;52.436;13.312;2023-05-07T07:25:32;10.80;99.90
33699;DHT22;20032;52.436;13.312;2023-05-07T07:27:57;10.90;99.90
33699;DHT22;20032;52.436;13.312;2023-05-07T07:30:23;11.00;99.90
33699;DHT22;20032;52.436;13.312;2023-05-07T07:32:48;11.10;99.90
33699;DHT22;20032;52.436;13.312;2023-05-07T07:35:14;11.20;99.90
33699;DHT22;20032;52.436;13.312;2023-05-07T07:37:39;11.40;99.90
33699;DHT22;20032;52.436;13.312;2023-05-07T07:40:06;11.50;99.90
33699;DHT22;20032;52.436;13.312;2023-05-07T07:42:32;11.60;99.90
33699;DHT22;20032;52.436;13.312;2023-05-07T07:44:58;11.80;99.90
33699;DHT22;20032;52.436;13.312;2023-05-07T07:47:23;11.80;99.90
33699;DHT22;20032;52.436;13.312;2023-05-07T07:49:49;11.90;99.90
33699;DHT22;20032;52.436;13.312;2023-05-07T07:52:14;12.00;99.90
33699;DHT22;20032;52.436;13.312;2023-05-07T07:54:40;12.20;99.90
33699;DHT22;20032;52.436;13.312;2023-05-07T07:57:05;12.20;99.90
33699;DHT22;20032;52.436;13.312;2023-05-07T07:59:31;12.10;99.90
33699;DHT22;20032;52.436;13.312;2023-05-07T08:01:57;12.30;99.90
33699;DHT22;20032;52.436;13.312;2023-05-07T08:04:23;12.30;99.90
33699;DHT22;20032;52.436;13.312;2023-05-07T08:06:48;12.50;99.90
33699;DHT22;20032;52.436;13.312;2023-05-07T08:09:14;12.60;99.90
33699;DHT22;20032;52.436;13.312;2023-05-07T08:11:39;12.90;99.90
33699;DHT22;20032;52.436;13.312;2023-05-07T08:14:05;13.10;99.90
33699;DHT22;20032;52.436;13.312;2023-05-07T08:16:31;13.10;99.90
33699;DHT22;20032;52.436;13.312;2023-05-07T08:18:56;12.90;99.90
33699;DHT22;20032;52.436;13.312;2023-05-07T08:21:22;13.00;99.90
33699;DHT22;20032;52.436;13.312;2023-05-07T08:23:48;13.10;99.90
33699;DHT22;20032;52.436;13.312;2023-05-07T08:26:14;13.40;99.90
33699;DHT22;20032;52.436;13.312;2023-05-07T08:28:39;13.70;99.90
33699;DHT22;20032;52.436;13.312;2023-05-07T08:31:05;13.90;99.90
33699;DHT22;20032;52.436;13.312;2023-05-07T08:33:31;14.00;99.90
33699;DHT22;20032;52.436;13.312;2023-05-07T08:35:56;14.10;99.90
33699;DHT22;20032;52.436;13.312;2023-05-07T08:38:22;14.30;99.90
33699;DHT22;20032;52.436;13.312;2023-05-07T08:40:47;14.20;99.90
33699;DHT22;20032;52.436;13.312;2023-05-07T08:43:13;14.00;99.90
33699;DHT22;20032;52.436;13.312;2023-05-07T08:45:40;13.90;99.90
33699;DHT22;20032;52.436;13.312;2023-05-07T08:48:09;13.90;99.90
33699;DHT22;20032;52.436;13.312;2023-05-07T08:50:39;14.00;99.90
33699;DHT22;20032;52.436;13.312;2023-05-07T08:53:05;14.00;99.90
33699;DHT22;20032;52.436;13.312;2023-05-07T08:55:31;13.80;99.90
33699;DHT22;20032;52.436;13.312;2023-05-07T08:57:59;13.80;99.90
33699;DHT22;20032;52.436;13.312;2023-05-07T09:00:25;13.80;99.90
33699;DHT22;20032;52.436;13.312;2023-05-07T09:02:51;14.00;99.90
33699;DHT22;20032;52.436;13.312;2023-05-07T09:05:17;13.90;99.90
33699;DHT22;20032;52.436;13.312;2023-05-07T09:07:42;13.80;99.90
33699;DHT22;20032;52.436;13.312;2023-05-07T09:10:08;13.80;99.90
33699;DHT22;20032;52.436;13.312;2023-05-07T09:12:34;13.80;99.90
33699;DHT22;20032;52.436;13.312;2023-05-07T09:15:01;13.90;99.90
33699;DHT22;20032;52.436;13.312;2023-05-07T09:17:28;14.10;99.90
33699;DHT22;20032;52.436;13.312;2023-05-07T09:19:53;14.30;99.90
33699;DHT22;20032;52.436;13.312;2023-05-07T09:22:19;14.50;99.90
33699;DHT22;20032;52.436;13.312;2023-05-07T09:24:48;14.70;99.90
33699;DHT22;20032;52.436;13.312;2023-05-07T09:27:14;15.10;99.90
33699;DHT22;20032;52.436;13.312;2023-05-07T09:29:41;15.20;99.90
33699;DHT22;20032;52.436;13.312;2023-05-07T09:32:07;14.90;99.90
33699;DHT22;20032;52.436;13.312;2023-05-07T09:34:34;15.10;99.90
33699;DHT22;20032;52.436;13.312;2023-05-07T09:37:02;15.30;99.90
33699;DHT22;20032;52.436;13.312;2023-05-07T09:39:49;15.30;99.90
33699;DHT22;20032;52.436;13.312;2023-05-07T09:42:15;15.10;99.90
33699;DHT22;20032;52.436;13.312;2023-05-07T09:44:41;14.80;99.90
33699;DHT22;20032;52.436;13.312;2023-05-07T09:47:08;14.60;99.90
33699;DHT22;20032;52.436;13.312;2023-05-07T09:49:36;14.80;99.90
33699;DHT22;20032;52.436;13.312;2023-05-07T09:52:04;14.80;99.90
33699;DHT22;20032;52.436;13.312;2023-05-07T09:54:32;14.60;99.90
33699;DHT22;20032;52.436;13.312;2023-05-07T09:56:59;14.70;99.90
33699;DHT22;20032;52.436;13.312;2023-05-07T09:59:31;14.60;99.90
33699;DHT22;20032;52.436;13.312;2023-05-07T10:01:57;14.60;99.90
33699;DHT22;20032;52.436;13.312;2023-05-07T10:04:25;14.60;99.90
33699;DHT22;20032;52.436;13.312;2023-05-07T10:06:52;14.80;99.90
33699;DHT22;20032;52.436;13.312;2023-05-07T10:09:18;14.80;99.90
33699;DHT22;20032;52.436;13.312;2023-05-07T10:11:43;14.60;99.90
33699;DHT22;20032;52.436;13.312;2023-05-07T10:14:10;14.60;99.90
33699;DHT22;20032;52.436;13.312;2023-05-07T10:16:36;14.50;99.90
33699;DHT22;20032;52.436;13.312;2023-05-07T10:19:06;14.50;99.90
33699;DHT22;20032;52.436;13.312;2023-05-07T10:21:36;14.50;99.90
33699;DHT22;20032;52.436;13.312;2023-05-07T10:24:05;14.90;99.90
33699;DHT22;20032;52.436;13.312;2023-05-07T10:26:40;15.00;99.90
33699;DHT22;20032;52.436;13.312;2023-05-07T10:29:12;15.00;99.90
33699;DHT22;20032;52.436;13.312;2023-05-07T10:31:54;15.00;99.90
33699;DHT22;20032;52.436;13.312;2023-05-07T10:34:26;15.10;99.90
33699;DHT22;20032;52.436;13.312;2023-05-07T10:36:53;15.40;99.90
33699;DHT22;20032;52.436;13.312;2023-05-07T10:39:21;15.30;99.90
33699;DHT22;20032;52.436;13.312;2023-05-07T10:41:47;15.20;99.90
33699;DHT22;20032;52.436;13.312;2023-05-07T10:44:25;15.00;99.90
33699;DHT22;20032;52.436;13.312;2023-05-07T10:47:13;14.80;99.90
33699;DHT22;20032;52.436;13.312;2023-05-07T10:52:20;14.50;99.90
33699;DHT22;20032;52.436;13.312;2023-05-07T10:54:45;14.70;99.90
33699;DHT22;20032;52.436;13.312;2023-05-07T10:59:58;15.10;99.90
33699;DHT22;20032;52.436;13.312;2023-05-07T11:05:28;15.50;99.90
33699;DHT22;20032;52.436;13.312;2023-05-07T11:07:55;15.70;99.90
33699;DHT22;20032;52.436;13.312;2023-05-07T11:10:22;16.20;99.90
33699;DHT22;20032;52.436;13.312;2023-05-07T11:12:49;16.70;99.90
33699;DHT22;20032;52.436;13.312;2023-05-07T11:15:35;17.30;99.90
33699;DHT22;20032;52.436;13.312;2023-05-07T11:18:01;17.60;99.90
33699;DHT22;20032;52.436;13.312;2023-05-07T11:20:47;17.80;99.90
33699;DHT22;20032;52.436;13.312;2023-05-07T11:26:05;19.20;99.90
33699;DHT22;20032;52.436;13.312;2023-05-07T11:28:37;19.40;99.90
33699;DHT22;20032;52.436;13.312;2023-05-07T11:31:03;19.20;99.90
33699;DHT22;20032;52.436;13.312;2023-05-07T11:33:30;18.90;99.90
33699;DHT22;20032;52.436;13.312;2023-05-07T11:35:57;18.70;99.90
33699;DHT22;20032;52.436;13.312;2023-05-07T11:38:23;19.20;99.90
33699;DHT22;20032;52.436;13.312;2023-05-07T11:40:50;19.40;99.90
33699;DHT22;20032;52.436;13.312;2023-05-07T11:43:17;19.70;99.80
33699;DHT22;20032;52.436;13.312;2023-05-07T11:45:42;20.00;98.70
33699;DHT22;20032;52.436;13.312;2023-05-07T11:48:08;19.90;97.40
33699;DHT22;20032;52.436;13.312;2023-05-07T11:50:34;20.20;97.90
33699;DHT22;20032;52.436;13.312;2023-05-07T11:52:59;20.60;98.10
33699;DHT22;20032;52.436;13.312;2023-05-07T11:55:25;20.70;96.90
33699;DHT22;20032;52.436;13.312;2023-05-07T11:57:51;21.30;95.20
33699;DHT22;20032;52.436;13.312;2023-05-07T12:00:17;21.40;95.00
33699;DHT22;20032;52.436;13.312;2023-05-07T12:02:45;21.10;95.50
33699;DHT22;20032;52.436;13.312;2023-05-07T12:05:10;21.10;95.70
33699;DHT22;20032;52.436;13.312;2023-05-07T12:07:36;21.00;94.60
33699;DHT22;20032;52.436;13.312;2023-05-07T12:10:06;21.10;96.30
33699;DHT22;20032;52.436;13.312;2023-05-07T12:12:38;21.30;95.10
33699;DHT22;20032;52.436;13.312;2023-05-07T12:15:04;21.10;94.90
33699;DHT22;20032;52.436;13.312;2023-05-07T12:17:30;20.50;94.20
33699;DHT22;20032;52.436;13.312;2023-05-07T12:19:55;20.30;95.20
33699;DHT22;20032;52.436;13.312;2023-05-07T12:22:21;20.90;93.20
33699;DHT22;20032;52.436;13.312;2023-05-07T12:24:49;21.20;92.60
33699;DHT22;20032;52.436;13.312;2023-05-07T12:27:16;22.00;92.50
33699;DHT22;20032;52.436;13.312;2023-05-07T12:29:46;21.90;91.10
33699;DHT22;20032;52.436;13.312;2023-05-07T12:32:13;21.50;92.00
33699;DHT22;20032;52.436;13.312;2023-05-07T12:34:41;21.30;93.00
33699;DHT22;20032;52.436;13.312;2023-05-07T12:37:06;20.80;93.60
33699;DHT22;20032;52.436;13.312;2023-05-07T12:39:32;20.20;93.30
33699;DHT22;20032;52.436;13.312;2023-05-07T12:41:59;19.80;94.20
33699;DHT22;20032;52.436;13.312;2023-05-07T12:44:29;20.00;94.20
33699;DHT22;20032;52.436;13.312;2023-05-07T12:46:55;20.00;93.20
33699;DHT22;20032;52.436;13.312;2023-05-07T12:49:23;20.70;92.70
33699;DHT22;20032;52.436;13.312;2023-05-07T12:51:48;21.80;90.90
33699;DHT22;20032;52.436;13.312;2023-05-07T12:54:31;21.20;92.00
33699;DHT22;20032;52.436;13.312;2023-05-07T12:57:02;20.80;92.20
33699;DHT22;20032;52.436;13.312;2023-05-07T12:59:36;21.20;93.80
33699;DHT22;20032;52.436;13.312;2023-05-07T13:02:02;21.90;92.60
33699;DHT22;20032;52.436;13.312;2023-05-07T13:04:28;22.70;91.70
33699;DHT22;20032;52.436;13.312;2023-05-07T13:06:54;23.30;88.10
33699;DHT22;20032;52.436;13.312;2023-05-07T13:09:19;23.70;88.90
33699;DHT22;20032;52.436;13.312;2023-05-07T13:11:45;23.10;87.40
33699;DHT22;20032;52.436;13.312;2023-05-07T13:14:12;23.00;87.20
33699;DHT22;20032;52.436;13.312;2023-05-07T13:16:37;22.90;87.10
33699;DHT22;20032;52.436;13.312;2023-05-07T13:19:04;23.10;89.00
33699;DHT22;20032;52.436;13.312;2023-05-07T13:21:30;23.20;86.10
33699;DHT22;20032;52.436;13.312;2023-05-07T13:23:57;23.70;84.40
33699;DHT22;20032;52.436;13.312;2023-05-07T13:26:23;23.70;84.70
33699;DHT22;20032;52.436;13.312;2023-05-07T13:28:49;24.20;84.30
33699;DHT22;20032;52.436;13.312;2023-05-07T13:31:14;23.30;84.50
33699;DHT22;20032;52.436;13.312;2023-05-07T13:33:39;23.20;84.80
33699;DHT22;20032;52.436;13.312;2023-05-07T13:36:06;23.40;83.50
33699;DHT22;20032;52.436;13.312;2023-05-07T13:38:31;23.70;80.80
33699;DHT22;20032;52.436;13.312;2023-05-07T13:40:57;22.70;82.30
33699;DHT22;20032;52.436;13.312;2023-05-07T13:43:22;21.60;85.80
33699;DHT22;20032;52.436;13.312;2023-05-07T13:45:48;21.20;89.10
33699;DHT22;20032;52.436;13.312;2023-05-07T13:48:13;21.70;90.50
33699;DHT22;20032;52.436;13.312;2023-05-07T13:50:39;22.30;85.90
33699;DHT22;20032;52.436;13.312;2023-05-07T13:53:04;22.00;86.80
33699;DHT22;20032;52.436;13.312;2023-05-07T13:55:30;21.10;88.00
33699;DHT22;20032;52.436;13.312;2023-05-07T13:57:57;20.40;88.10
33699;DHT22;20032;52.436;13.312;2023-05-07T14:00:24;20.40;90.10
33699;DHT22;20032;52.436;13.312;2023-05-07T14:02:52;21.30;88.90
33699;DHT22;20032;52.436;13.312;2023-05-07T14:05:18;22.10;86.20
33699;DHT22;20032;52.436;13.312;2023-05-07T14:07:44;22.10;89.30
33699;DHT22;20032;52.436;13.312;2023-05-07T14:10:10;22.30;85.00
33699;DHT22;20032;52.436;13.312;2023-05-07T14:12:36;22.60;87.20
33699;DHT22;20032;52.436;13.312;2023-05-07T14:15:03;22.80;85.30
33699;DHT22;20032;52.436;13.312;2023-05-07T14:17:28;23.00;85.50
33699;DHT22;20032;52.436;13.312;2023-05-07T14:19:54;23.00;83.50
33699;DHT22;20032;52.436;13.312;2023-05-07T14:22:21;23.20;84.50
33699;DHT22;20032;52.436;13.312;2023-05-07T14:24:47;23.30;83.20
33699;DHT22;20032;52.436;13.312;2023-05-07T14:27:13;22.80;85.30
33699;DHT22;20032;52.436;13.312;2023-05-07T14:29:39;22.90;83.20
33699;DHT22;20032;52.436;13.312;2023-05-07T14:32:05;22.80;87.10
33699;DHT22;20032;52.436;13.312;2023-05-07T14:34:32;23.10;83.20
33699;DHT22;20032;52.436;13.312;2023-05-07T14:36:59;23.50;82.20
33699;DHT22;20032;52.436;13.312;2023-05-07T14:39:24;24.00;81.30
33699;DHT22;20032;52.436;13.312;2023-05-07T14:41:50;23.40;82.80
33699;DHT22;20032;52.436;13.312;2023-05-07T14:44:16;23.70;81.40
33699;DHT22;20032;52.436;13.312;2023-05-07T14:46:41;23.80;79.80
33699;DHT22;20032;52.436;13.312;2023-05-07T14:49:07;24.50;79.60
33699;DHT22;20032;52.436;13.312;2023-05-07T14:51:44;24.40;79.60
33699;DHT22;20032;52.436;13.312;2023-05-07T14:54:10;23.90;79.40
33699;DHT22;20032;52.436;13.312;2023-05-07T14:56:36;24.30;80.40
33699;DHT22;20032;52.436;13.312;2023-05-07T14:59:02;24.10;79.10
33699;DHT22;20032;52.436;13.312;2023-05-07T15:01:28;23.80;79.20
33699;DHT22;20032;52.436;13.312;2023-05-07T15:03:54;24.00;78.30
33699;DHT22;20032;52.436;13.312;2023-05-07T15:06:20;22.90;80.60
33699;DHT22;20032;52.436;13.312;2023-05-07T15:08:46;22.00;83.70
33699;DHT22;20032;52.436;13.312;2023-05-07T15:11:11;21.00;85.20
33699;DHT22;20032;52.436;13.312;2023-05-07T15:13:37;20.10;87.90
33699;DHT22;20032;52.436;13.312;2023-05-07T15:16:04;20.10;89.40
33699;DHT22;20032;52.436;13.312;2023-05-07T15:18:29;19.80;90.20
33699;DHT22;20032;52.436;13.312;2023-05-07T15:20:56;19.50;91.50
33699;DHT22;20032;52.436;13.312;2023-05-07T15:23:23;19.40;90.90
33699;DHT22;20032;52.436;13.312;2023-05-07T15:25:48;19.60;90.80
33699;DHT22;20032;52.436;13.312;2023-05-07T15:28:14;20.10;89.80
33699;DHT22;20032;52.436;13.312;2023-05-07T15:30:39;19.60;90.50